Terminal Aerodrome Forecast
Issued by NWS

Home | Current Version | Previous Version | Text Only | Print | Product List | Glossary On
Versions: 1 2 3 4 5 6 7 8 9 10 11 12 13 14 15 16 17 18 19 20 21 22 23 24 25 26
000
FTPA31 PHFO 161100
TAFOGG
TAF
PHOG 161123Z 1612/1712 05012KT P6SM VCSH FEW025 BKN045
     FM162000 05018G25KT P6SM SCT050
     FM170500 05012G20KT P6SM VCSH FEW025 SCT045
      AMD LTD TO WX VIS AND WIND TIL 161600=

USA.gov is the U.S. government's official web portal to all federal, state and local government web resources and services.